Time;durP1;ratioP1;P1;durP2;ratioP2;P2;SDS_P1;SDS_P2;PMS_P1;PMS_P2;Temp;Humidity;BMP_temperature;BMP_pressure;BME280_temperature;BME280_humidity;BME280_pressure;Samples;Min_cycle;Max_cycle;Signal;HPM_P1;HPM_P2
2023/07/12 00:00:52;;;;;;;2.80;1.13;;;18.30;99.90;;;;;;5117345;28;20023;-67
2023/07/12 00:03:19;;;;;;;3.80;1.60;;;18.30;99.90;;;;;;5117339;28;20042;-67
2023/07/12 00:05:47;;;;;;;3.95;0.68;;;18.30;99.90;;;;;;5113773;28;20333;-67
2023/07/12 00:08:25;;;;;;;4.47;0.88;;;18.30;99.90;;;;;;5097399;28;20059;-85
2023/07/12 00:10:53;;;;;;;8.38;1.40;;;18.30;99.90;;;;;;5102547;28;20525;-67
2023/07/12 00:13:19;;;;;;;4.15;0.98;;;18.30;99.90;;;;;;5116444;27;20079;-66
2023/07/12 00:15:46;;;;;;;3.45;0.85;;;18.30;99.90;;;;;;5111188;27;20430;-67
2023/07/12 00:18:15;;;;;;;3.75;1.20;;;18.30;99.90;;;;;;5115895;28;20088;-66
2023/07/12 00:20:42;;;;;;;1.92;1.20;;;18.30;99.90;;;;;;5109839;28;20027;-67
2023/07/12 00:23:10;;;;;;;1.80;0.98;;;18.30;99.90;;;;;;5114181;28;20076;-82
2023/07/12 00:25:37;;;;;;;4.80;1.20;;;18.30;99.90;;;;;;5116460;28;20027;-67
2023/07/12 00:28:09;;;;;;;4.53;1.33;;;18.30;99.90;;;;;;5115099;28;20062;-67
2023/07/12 00:30:36;;;;;;;6.50;1.67;;;18.20;99.90;;;;;;5114625;28;20028;-86
2023/07/12 00:33:03;;;;;;;4.00;1.48;;;18.30;99.90;;;;;;5114789;28;20016;-67
2023/07/12 00:35:32;;;;;;;5.07;1.50;;;18.30;99.90;;;;;;5096296;28;20305;-66
2023/07/12 00:38:00;;;;;;;2.97;1.08;;;18.30;99.90;;;;;;5116024;28;20106;-67
2023/07/12 00:40:34;;;;;;;5.38;1.17;;;18.30;99.90;;;;;;5116388;28;20019;-85
2023/07/12 00:43:19;;;;;;;5.05;1.20;;;18.30;99.90;;;;;;5114068;28;20019;-67
2023/07/12 00:45:48;;;;;;;3.42;1.40;;;18.20;99.90;;;;;;5112097;28;20046;-67
2023/07/12 00:48:15;;;;;;;13.10;1.75;;;18.20;99.90;;;;;;5112696;27;20032;-67
2023/07/12 00:50:41;;;;;;;;;;;18.20;99.90;;;;;;5111369;27;20027;-67
2023/07/12 00:53:14;;;;;;;2.53;0.80;;;18.20;99.90;;;;;;5115267;28;20018;-67
2023/07/12 00:55:59;;;;;;;5.13;1.65;;;18.20;99.90;;;;;;5114963;28;20015;-67
2023/07/12 00:58:29;;;;;;;6.00;1.52;;;18.20;99.90;;;;;;5108151;27;20031;-84
2023/07/12 01:00:58;;;;;;;3.05;1.50;;;18.20;99.90;;;;;;5114385;28;20076;-67
2023/07/12 01:03:26;;;;;;;5.15;1.80;;;18.20;99.90;;;;;;5114712;28;20035;-66
2023/07/12 01:05:52;;;;;;;4.97;1.88;;;18.20;99.90;;;;;;5113080;28;20419;-65
2023/07/12 01:08:21;;;;;;;17.53;2.70;;;18.20;99.90;;;;;;5112387;28;20027;-67
2023/07/12 01:10:47;;;;;;;8.15;1.58;;;18.20;99.90;;;;;;5115844;28;20810;-66
2023/07/12 01:13:13;;;;;;;7.53;1.73;;;18.10;99.90;;;;;;5115279;28;20020;-65
2023/07/12 01:15:39;;;;;;;4.70;1.40;;;18.10;99.90;;;;;;5108199;28;20430;-66
2023/07/12 01:18:06;;;;;;;4.90;1.98;;;18.10;99.90;;;;;;5109406;28;20104;-65
2023/07/12 01:20:40;;;;;;;4.63;1.65;;;18.10;99.90;;;;;;5112000;28;20023;-65
2023/07/12 01:23:06;;;;;;;6.80;2.00;;;18.10;99.90;;;;;;5115785;28;20053;-87
2023/07/12 01:26:11;;;;;;;4.57;1.40;;;18.10;99.90;;;;;;5116258;28;20422;-65
2023/07/12 01:28:37;;;;;;;6.35;1.80;;;18.00;99.90;;;;;;5113680;28;20031;-65
2023/07/12 01:31:03;;;;;;;7.60;2.13;;;18.00;99.90;;;;;;5113951;28;20483;-65
2023/07/12 01:33:29;;;;;;;4.87;1.50;;;17.90;99.90;;;;;;5097077;28;20049;-65
2023/07/12 01:35:55;;;;;;;7.03;1.87;;;17.90;99.90;;;;;;5115960;27;20318;-86
2023/07/12 01:38:20;;;;;;;3.37;1.90;;;18.00;99.90;;;;;;5103697;28;20020;-65
2023/07/12 01:40:46;;;;;;;9.37;2.10;;;18.00;99.90;;;;;;5109803;28;20024;-86
2023/07/12 01:43:12;;;;;;;3.10;1.63;;;17.90;99.90;;;;;;5104281;28;20023;-65
2023/07/12 01:45:38;;;;;;;6.63;1.90;;;17.90;99.90;;;;;;5109953;28;20045;-66
2023/07/12 01:48:04;;;;;;;6.50;1.50;;;17.80;99.90;;;;;;5115626;28;20020;-65
2023/07/12 01:50:29;;;;;;;4.35;1.88;;;17.80;99.90;;;;;;5115258;28;20099;-65
2023/07/12 01:52:55;;;;;;;3.23;1.50;;;17.80;99.90;;;;;;5097850;28;20515;-91
2023/07/12 01:55:21;;;;;;;7.57;2.05;;;17.70;99.90;;;;;;5097873;28;20437;-65
2023/07/12 01:57:47;;;;;;;3.03;1.60;;;17.70;99.90;;;;;;5109471;28;20357;-65
2023/07/12 02:00:13;;;;;;;9.73;1.97;;;17.60;99.90;;;;;;5101042;28;20106;-65
2023/07/12 02:02:39;;;;;;;6.93;2.05;;;17.60;99.90;;;;;;5111801;28;20039;-64
2023/07/12 02:05:06;;;;;;;3.07;1.53;;;17.60;99.90;;;;;;5115844;28;20028;-65
2023/07/12 02:07:32;;;;;;;4.15;1.35;;;17.60;99.90;;;;;;5115429;28;20063;-65
2023/07/12 02:10:14;;;;;;;4.65;1.63;;;17.60;99.90;;;;;;5113945;28;20035;-90
2023/07/12 02:12:41;;;;;;;18.75;2.80;;;17.60;99.90;;;;;;5114758;28;20032;-65
2023/07/12 02:15:07;;;;;;;4.10;2.10;;;17.50;99.90;;;;;;5103182;28;20453;-65
2023/07/12 02:17:33;;;;;;;8.73;2.22;;;17.50;99.90;;;;;;5093986;28;20070;-65
2023/07/12 02:19:59;;;;;;;9.88;2.22;;;17.40;99.90;;;;;;5092701;28;20095;-65
2023/07/12 02:22:25;;;;;;;7.53;1.60;;;17.40;99.90;;;;;;5093372;28;20043;-64
2023/07/12 02:24:51;;;;;;;5.47;2.08;;;17.40;99.90;;;;;;5094280;28;20078;-65
2023/07/12 02:27:17;;;;;;;5.87;2.17;;;17.40;99.90;;;;;;5062734;28;20330;-65
2023/07/12 02:29:42;;;;;;;6.60;1.80;;;17.50;99.90;;;;;;5093434;28;20028;-65
2023/07/12 02:32:08;;;;;;;5.87;3.23;;;17.50;99.90;;;;;;5092833;28;20529;-65
2023/07/12 02:34:34;;;;;;;7.38;2.28;;;17.50;99.90;;;;;;5089570;28;20031;-65
2023/07/12 02:37:00;;;;;;;6.87;1.90;;;17.40;99.90;;;;;;5094157;28;20020;-65
2023/07/12 02:39:26;;;;;;;9.30;2.17;;;17.40;99.90;;;;;;5094003;28;20082;-85
2023/07/12 02:41:51;;;;;;;6.55;2.30;;;17.40;99.90;;;;;;5092670;28;20024;-65
2023/07/12 02:44:17;;;;;;;5.83;2.27;;;17.40;99.90;;;;;;5093176;28;20036;-65
2023/07/12 02:46:43;;;;;;;5.30;2.10;;;17.30;99.90;;;;;;5094085;28;20020;-65
2023/07/12 02:49:09;;;;;;;5.67;1.77;;;17.30;99.90;;;;;;5093066;28;20055;-65
2023/07/12 02:51:34;;;;;;;7.77;1.97;;;17.30;99.90;;;;;;5092928;28;20056;-65
2023/07/12 02:54:00;;;;;;;3.90;1.90;;;17.30;99.90;;;;;;5094701;28;20024;-65
2023/07/12 02:56:26;;;;;;;4.67;2.17;;;17.30;99.90;;;;;;5094565;28;20422;-92
2023/07/12 02:58:51;;;;;;;7.87;2.67;;;17.30;99.90;;;;;;5089402;28;20161;-65
2023/07/12 03:01:17;;;;;;;3.63;1.67;;;17.40;99.90;;;;;;5092253;28;20046;-65
2023/07/12 03:03:42;;;;;;;9.93;2.33;;;17.30;99.90;;;;;;5092777;28;20032;-65
2023/07/12 03:06:11;;;;;;;14.13;2.50;;;17.30;99.90;;;;;;5094672;28;20032;-66
2023/07/12 03:08:37;;;;;;;7.25;2.53;;;17.30;99.90;;;;;;5093217;28;20016;-65
2023/07/12 03:11:05;;;;;;;5.68;2.40;;;17.30;99.90;;;;;;5094499;28;20300;-65
2023/07/12 03:13:31;;;;;;;11.27;2.05;;;17.30;99.90;;;;;;5095874;28;20345;-66
2023/07/12 03:15:58;;;;;;;7.95;2.22;;;17.30;99.90;;;;;;5110084;28;20048;-65
2023/07/12 03:18:24;;;;;;;4.10;2.28;;;17.30;99.90;;;;;;5116959;28;20453;-65
2023/07/12 03:20:50;;;;;;;9.85;1.83;;;17.30;99.90;;;;;;5117684;28;20916;-65
2023/07/12 03:23:17;;;;;;;7.23;2.30;;;17.30;99.90;;;;;;5118177;28;20035;-65
2023/07/12 03:25:46;;;;;;;5.72;2.05;;;17.20;99.90;;;;;;5116636;28;20047;-65
2023/07/12 03:28:12;;;;;;;6.22;2.67;;;17.20;99.90;;;;;;5117806;28;20067;-65
2023/07/12 03:30:38;;;;;;;6.10;1.67;;;17.20;99.90;;;;;;5116448;28;20063;-67
2023/07/12 03:33:04;;;;;;;12.93;2.80;;;17.20;99.90;;;;;;5117266;27;20015;-66
2023/07/12 03:35:29;;;;;;;6.97;2.50;;;17.20;99.90;;;;;;5117377;28;20024;-65
2023/07/12 03:37:55;;;;;;;8.10;2.60;;;17.20;99.90;;;;;;5109404;28;20138;-65
2023/07/12 03:40:21;;;;;;;4.68;2.05;;;17.30;99.90;;;;;;5113162;28;20334;-66
2023/07/12 03:42:47;;;;;;;8.20;2.23;;;17.30;99.90;;;;;;5118151;28;20112;-65
2023/07/12 03:45:13;;;;;;;5.63;2.43;;;17.20;99.90;;;;;;5118467;28;20271;-66
2023/07/12 03:47:39;;;;;;;5.85;2.33;;;17.20;99.90;;;;;;5118102;28;20520;-85
2023/07/12 03:50:05;;;;;;;12.73;2.40;;;17.20;99.90;;;;;;5100365;28;20028;-66
2023/07/12 03:52:31;;;;;;;8.23;1.90;;;17.20;99.90;;;;;;5099705;28;20436;-65
2023/07/12 03:54:56;;;;;;;10.27;2.67;;;17.20;99.90;;;;;;5118506;28;20026;-65
2023/07/12 03:57:23;;;;;;;11.60;2.73;;;17.30;99.90;;;;;;5116129;28;20059;-66
2023/07/12 03:59:49;;;;;;;7.80;2.13;;;17.30;99.90;;;;;;5112513;28;20081;-66
2023/07/12 04:02:15;;;;;;;4.40;2.13;;;17.20;99.90;;;;;;5110990;28;20071;-82
2023/07/12 04:04:41;;;;;;;4.63;2.97;;;17.30;99.90;;;;;;5110783;28;20025;-66
2023/07/12 04:07:07;;;;;;;3.47;2.23;;;17.30;99.90;;;;;;5110243;28;20433;-66
2023/07/12 04:09:33;;;;;;;;;;;17.30;99.90;;;;;;5108941;28;20103;-66
2023/07/12 04:11:59;;;;;;;4.85;3.20;;;17.30;99.90;;;;;;5108562;28;19995;-65
2023/07/12 04:14:25;;;;;;;8.77;3.80;;;17.40;99.90;;;;;;5102842;28;20318;-82
2023/07/12 04:16:51;;;;;;;12.13;3.33;;;17.30;99.90;;;;;;5087666;28;20024;-66
2023/07/12 04:19:17;;;;;;;7.07;4.07;;;17.30;99.90;;;;;;5091304;28;20030;-66
2023/07/12 04:21:42;;;;;;;5.70;3.10;;;17.30;99.90;;;;;;5088431;28;20020;-81
2023/07/12 04:24:08;;;;;;;6.47;3.90;;;17.20;99.90;;;;;;5078249;28;20453;-67
2023/07/12 04:26:34;;;;;;;6.70;3.50;;;17.20;99.90;;;;;;5085773;28;20429;-66
2023/07/12 04:29:00;;;;;;;7.63;3.57;;;17.20;99.90;;;;;;5087414;28;20029;-66
2023/07/12 04:31:26;;;;;;;8.57;3.42;;;17.10;99.90;;;;;;5089199;28;20032;-65
2023/07/12 04:33:52;;;;;;;8.10;3.63;;;17.20;99.90;;;;;;5075025;28;20419;-66
2023/07/12 04:36:18;;;;;;;7.47;3.37;;;17.10;99.90;;;;;;5093540;28;20076;-66
2023/07/12 04:38:45;;;;;;;13.18;3.45;;;17.10;99.90;;;;;;5093485;28;20359;-66
2023/07/12 04:41:11;;;;;;;6.25;3.42;;;17.10;99.90;;;;;;5086957;28;20036;-67
2023/07/12 04:43:37;;;;;;;7.57;3.72;;;17.10;99.90;;;;;;5092419;28;20040;-66
2023/07/12 04:46:04;;;;;;;8.02;3.97;;;17.10;99.90;;;;;;5091780;28;20300;-66
2023/07/12 04:48:30;;;;;;;;;;;17.10;99.90;;;;;;5087364;28;20040;-66
2023/07/12 04:50:56;;;;;;;10.05;3.20;;;17.10;99.90;;;;;;5089680;28;19912;-66
2023/07/12 04:53:23;;;;;;;15.02;2.70;;;17.20;99.90;;;;;;5093221;28;20032;-67
2023/07/12 04:55:52;;;;;;;;;;;17.20;99.90;;;;;;5095964;28;20072;-66
2023/07/12 04:58:18;;;;;;;7.72;2.95;;;17.20;99.90;;;;;;5078371;28;19908;-68
2023/07/12 05:00:44;;;;;;;6.88;3.28;;;17.20;99.90;;;;;;5093904;28;20028;-67
2023/07/12 05:03:12;;;;;;;11.53;3.10;;;17.10;99.90;;;;;;5096290;28;20024;-66
2023/07/12 05:05:39;;;;;;;5.55;3.15;;;17.10;99.90;;;;;;5093972;28;20056;-71
2023/07/12 05:08:05;;;;;;;8.10;4.20;;;17.10;99.90;;;;;;5094542;28;20422;-67
2023/07/12 05:10:31;;;;;;;9.00;3.67;;;17.10;99.90;;;;;;5095819;28;20040;-67
2023/07/12 05:12:57;;;;;;;12.52;3.60;;;17.10;99.90;;;;;;5096565;28;20039;-66
2023/07/12 05:15:23;;;;;;;5.67;3.00;;;17.20;99.90;;;;;;5096145;28;20044;-67
2023/07/12 05:17:49;;;;;;;7.83;3.50;;;17.30;99.90;;;;;;5093817;28;20852;-67
2023/07/12 05:20:16;;;;;;;8.93;3.65;;;17.40;99.90;;;;;;5100309;28;20299;-66
2023/07/12 05:22:43;;;;;;;10.45;4.85;;;17.40;99.90;;;;;;5097967;28;20430;-67
2023/07/12 05:25:09;;;;;;;7.82;3.25;;;17.40;99.90;;;;;;5095537;28;20031;-67
2023/07/12 05:27:35;;;;;;;6.60;3.15;;;17.40;99.90;;;;;;5098780;28;20300;-66
2023/07/12 05:30:02;;;;;;;5.40;3.17;;;17.50;99.90;;;;;;5077287;28;20134;-66
2023/07/12 05:32:28;;;;;;;8.75;3.88;;;17.50;99.90;;;;;;5095926;28;20024;-68
2023/07/12 05:34:54;;;;;;;7.70;3.43;;;17.50;99.90;;;;;;5094276;28;20458;-67
2023/07/12 05:37:20;;;;;;;11.03;3.90;;;17.50;99.90;;;;;;5095601;28;20355;-67
2023/07/12 05:39:45;;;;;;;11.37;3.63;;;17.60;99.90;;;;;;5094823;28;20054;-66
2023/07/12 05:42:12;;;;;;;9.53;3.87;;;17.70;99.90;;;;;;5095451;28;20032;-67
2023/07/12 05:44:38;;;;;;;6.03;3.60;;;17.70;99.90;;;;;;5091662;28;20027;-67
2023/07/12 05:47:04;;;;;;;8.50;4.77;;;17.70;99.90;;;;;;5109129;28;20414;-67
2023/07/12 05:49:30;;;;;;;5.15;3.25;;;17.70;99.90;;;;;;5097781;28;20303;-68
2023/07/12 05:51:55;;;;;;;8.83;3.90;;;17.70;99.90;;;;;;5099687;28;20035;-66
2023/07/12 05:54:21;;;;;;;11.07;3.70;;;17.70;99.90;;;;;;5097158;28;20028;-67
2023/07/12 05:56:47;;;;;;;7.33;4.60;;;17.70;99.90;;;;;;5115866;28;20031;-67
2023/07/12 05:59:14;;;;;;;15.10;4.87;;;17.70;99.90;;;;;;5103388;28;20078;-68
2023/07/12 06:01:39;;;;;;;13.15;3.97;;;17.70;99.90;;;;;;5089388;28;20098;-81
2023/07/12 06:04:08;;;;;;;16.23;4.90;;;17.70;99.90;;;;;;5095565;28;20020;-67
2023/07/12 06:06:35;;;;;;;9.73;4.38;;;17.80;99.90;;;;;;5109543;28;20066;-89
2023/07/12 06:09:01;;;;;;;8.25;4.07;;;17.90;99.90;;;;;;5096120;28;20295;-66
2023/07/12 06:11:27;;;;;;;16.73;4.20;;;17.90;99.90;;;;;;5109900;28;20032;-66
2023/07/12 06:13:53;;;;;;;10.83;4.97;;;17.90;99.90;;;;;;5103121;28;20028;-66
2023/07/12 06:16:19;;;;;;;6.35;3.78;;;17.80;99.90;;;;;;5108565;28;20046;-65
2023/07/12 06:18:45;;;;;;;5.53;3.40;;;17.80;99.90;;;;;;5101380;28;20106;-65
2023/07/12 06:21:10;;;;;;;13.17;4.50;;;17.80;99.90;;;;;;5115742;28;20333;-65
2023/07/12 06:23:36;;;;;;;14.17;4.57;;;17.70;99.90;;;;;;5115038;28;20565;-79
2023/07/12 06:26:03;;;;;;;9.93;3.90;;;17.70;99.90;;;;;;5101936;28;20024;-65
2023/07/12 06:28:29;;;;;;;8.93;3.97;;;17.60;99.90;;;;;;5098733;28;20117;-67
2023/07/12 06:30:55;;;;;;;13.43;4.95;;;17.60;99.90;;;;;;5096456;28;20028;-65
2023/07/12 06:33:21;;;;;;;10.52;4.57;;;17.60;99.90;;;;;;5091939;28;20731;-66
2023/07/12 06:35:47;;;;;;;7.83;3.50;;;17.70;99.90;;;;;;5083626;28;20309;-65
2023/07/12 06:38:13;;;;;;;8.20;4.70;;;17.80;99.90;;;;;;5086661;28;20116;-65
2023/07/12 06:40:39;;;;;;;10.55;4.57;;;17.80;99.90;;;;;;5091359;28;20063;-65
2023/07/12 06:43:05;;;;;;;8.60;4.60;;;17.80;99.90;;;;;;5100349;28;20379;-66
2023/07/12 06:45:31;;;;;;;8.33;4.30;;;17.70;99.90;;;;;;5078784;28;20024;-66
2023/07/12 06:47:56;;;;;;;6.03;3.75;;;17.70;99.90;;;;;;5089168;28;20453;-66
2023/07/12 06:50:22;;;;;;;9.37;3.07;;;17.60;99.90;;;;;;5077194;28;20096;-66
2023/07/12 06:52:48;;;;;;;11.73;2.57;;;17.60;99.90;;;;;;5081494;28;20170;-65
2023/07/12 06:55:14;;;;;;;9.13;3.27;;;17.50;99.90;;;;;;5087377;28;20039;-66
2023/07/12 06:57:40;;;;;;;11.15;2.65;;;17.60;99.90;;;;;;5088118;28;20332;-65
2023/07/12 07:00:08;;;;;;;14.60;3.43;;;17.70;99.90;;;;;;5091768;28;20193;-81
2023/07/12 07:02:35;;;;;;;6.05;2.67;;;17.80;99.90;;;;;;5088196;28;20073;-66
2023/07/12 07:05:00;;;;;;;5.80;2.33;;;17.90;99.90;;;;;;5091776;28;20024;-66
2023/07/12 07:07:28;;;;;;;3.87;2.33;;;17.90;99.90;;;;;;5090850;28;20028;-84
2023/07/12 07:09:54;;;;;;;8.40;2.67;;;18.00;99.90;;;;;;5090672;28;20020;-66
2023/07/12 07:12:20;;;;;;;11.55;3.35;;;18.10;99.90;;;;;;5081225;28;20012;-66
2023/07/12 07:14:46;;;;;;;9.33;2.93;;;18.20;99.90;;;;;;5098387;28;20117;-65
2023/07/12 07:17:12;;;;;;;9.17;2.80;;;18.30;99.90;;;;;;5111044;28;20028;-79
2023/07/12 07:19:38;;;;;;;13.25;2.88;;;18.30;99.90;;;;;;5085175;28;20103;-66
2023/07/12 07:22:04;;;;;;;8.95;2.30;;;18.20;99.90;;;;;;5102211;28;20027;-80
2023/07/12 07:24:30;;;;;;;5.70;2.13;;;18.10;99.90;;;;;;5114440;28;20104;-66
2023/07/12 07:26:56;;;;;;;10.75;2.85;;;18.10;99.90;;;;;;5113576;28;20111;-66
2023/07/12 07:29:22;;;;;;;8.13;2.50;;;18.10;99.90;;;;;;5106387;28;20407;-65
2023/07/12 07:31:48;;;;;;;10.18;2.78;;;18.30;99.90;;;;;;5097150;28;20024;-79
2023/07/12 07:34:14;;;;;;;6.43;2.47;;;18.40;99.90;;;;;;5102014;28;20027;-78
2023/07/12 07:36:41;;;;;;;5.88;2.08;;;18.50;99.90;;;;;;5104086;28;20674;-66
2023/07/12 07:39:07;;;;;;;;;;;18.50;99.90;;;;;;5104847;28;20035;-65
2023/07/12 07:41:33;;;;;;;14.13;3.00;;;18.50;99.90;;;;;;5099022;28;19904;-65
2023/07/12 07:43:58;;;;;;;4.90;1.85;;;18.50;99.90;;;;;;5110905;28;20340;-66
2023/07/12 07:46:26;;;;;;;8.67;2.40;;;18.50;99.90;;;;;;5111544;28;20031;-65
2023/07/12 07:48:52;;;;;;;7.05;1.92;;;18.50;99.90;;;;;;5113653;28;20028;-66
2023/07/12 07:51:20;;;;;;;10.63;2.07;;;18.40;99.90;;;;;;5111085;28;20342;-65
2023/07/12 07:53:46;;;;;;;6.32;1.85;;;18.40;99.90;;;;;;5110988;28;20280;-65
2023/07/12 07:56:11;;;;;;;7.00;1.50;;;18.30;99.90;;;;;;5113828;28;20035;-77
2023/07/12 07:58:37;;;;;;;6.27;1.67;;;18.30;99.90;;;;;;5117042;28;20024;-79
2023/07/12 08:01:04;;;;;;;5.68;1.67;;;18.30;99.90;;;;;;5114520;28;20027;-81
2023/07/12 08:03:34;;;;;;;6.40;2.05;;;18.60;99.90;;;;;;5114239;27;20430;-66
2023/07/12 08:06:05;;;;;;;5.97;1.80;;;18.80;99.90;;;;;;5116889;28;20034;-66
2023/07/12 08:08:32;;;;;;;6.85;2.30;;;19.00;99.90;;;;;;5118199;28;20054;-66
2023/07/12 08:10:58;;;;;;;4.00;1.58;;;19.20;99.90;;;;;;5112971;28;20015;-66
2023/07/12 08:13:25;;;;;;;2.50;1.55;;;19.20;99.90;;;;;;5114519;28;20400;-80
2023/07/12 08:15:50;;;;;;;5.07;1.95;;;19.30;99.90;;;;;;5107896;28;20669;-66
2023/07/12 08:18:16;;;;;;;5.80;2.27;;;19.40;99.90;;;;;;5108721;28;20027;-65
2023/07/12 08:20:42;;;;;;;7.03;1.90;;;19.50;99.90;;;;;;5106198;28;20032;-66
2023/07/12 08:23:08;;;;;;;6.03;1.83;;;19.60;99.90;;;;;;5104779;28;20020;-66
2023/07/12 08:25:35;;;;;;;6.60;1.70;;;19.70;99.90;;;;;;5107569;28;20020;-66
2023/07/12 08:28:00;;;;;;;4.90;1.92;;;19.80;99.90;;;;;;5081907;28;20988;-65
2023/07/12 08:30:26;;;;;;;2.27;1.60;;;19.90;99.90;;;;;;5108792;28;20118;-65
2023/07/12 08:32:52;;;;;;;3.38;1.35;;;19.90;99.90;;;;;;5106480;28;20112;-80
2023/07/12 08:35:18;;;;;;;7.40;1.93;;;19.90;99.90;;;;;;5104706;28;20414;-67
2023/07/12 08:37:44;;;;;;;5.43;2.10;;;20.10;99.90;;;;;;5103430;28;20244;-66
2023/07/12 08:40:14;;;;;;;8.00;2.17;;;20.20;99.90;;;;;;5104590;28;20027;-81
2023/07/12 08:42:41;;;;;;;6.38;2.05;;;20.20;99.90;;;;;;5103701;28;20433;-65
2023/07/12 08:45:22;;;;;;;7.40;1.58;;;20.20;99.90;;;;;;5107777;28;20050;-66
2023/07/12 08:47:53;;;;;;;3.58;1.35;;;20.40;99.90;;;;;;5109147;28;20027;-67
2023/07/12 08:50:19;;;;;;;6.38;1.42;;;20.60;99.90;;;;;;5106354;28;20043;-66
2023/07/12 08:52:45;;;;;;;5.10;1.60;;;20.70;99.90;;;;;;5107482;28;20122;-66
2023/07/12 08:55:16;;;;;;;5.50;1.13;;;20.70;99.90;;;;;;5112945;28;20039;-66
2023/07/12 08:57:41;;;;;;;6.30;1.95;;;20.60;99.90;;;;;;5108971;28;20031;-85
2023/07/12 09:00:19;;;;;;;4.67;1.00;;;20.50;99.90;;;;;;5102595;28;20032;-65
2023/07/12 09:02:45;;;;;;;3.25;1.08;;;20.50;99.90;;;;;;5111570;28;20074;-65
2023/07/12 09:05:19;;;;;;;3.23;1.53;;;20.60;99.90;;;;;;5102267;28;20027;-79
2023/07/12 09:08:01;;;;;;;5.07;1.50;;;20.70;99.90;;;;;;5099440;28;20024;-66
2023/07/12 09:10:39;;;;;;;2.97;0.90;;;20.90;99.90;;;;;;5113255;28;20321;-65
2023/07/12 09:13:06;;;;;;;2.45;1.27;;;21.00;99.90;;;;;;5114597;28;20019;-65
2023/07/12 09:15:39;;;;;;;8.52;1.17;;;21.30;99.90;;;;;;5113857;28;20376;-65
2023/07/12 09:18:07;;;;;;;2.55;1.48;;;21.30;99.90;;;;;;5114972;28;20030;-81
2023/07/12 09:20:38;;;;;;;2.75;1.83;;;21.40;99.90;;;;;;5116614;28;20027;-66
2023/07/12 09:23:08;;;;;;;2.95;0.98;;;21.70;99.90;;;;;;5116363;28;20050;-66
2023/07/12 09:25:38;;;;;;;3.80;1.45;;;21.70;99.90;;;;;;5115919;28;20099;-82
2023/07/12 09:28:05;;;;;;;7.80;1.85;;;21.50;99.90;;;;;;5115770;28;20114;-66
2023/07/12 09:30:33;;;;;;;10.13;1.92;;;21.40;99.90;;;;;;5115283;28;20020;-66
2023/07/12 09:33:03;;;;;;;8.20;1.23;;;21.30;99.90;;;;;;5114807;28;20414;-81
2023/07/12 09:35:38;;;;;;;2.50;0.98;;;21.50;99.90;;;;;;5112411;28;20481;-67
2023/07/12 09:38:11;;;;;;;4.47;1.45;;;21.40;99.90;;;;;;5086376;28;20040;-66
2023/07/12 09:40:44;;;;;;;4.55;1.48;;;21.50;99.90;;;;;;5102716;28;20024;-78
2023/07/12 09:43:24;;;;;;;5.72;1.50;;;21.70;99.90;;;;;;5107145;28;20027;-66
2023/07/12 09:46:14;;;;;;;1.45;1.05;;;21.90;99.90;;;;;;5106382;28;20031;-77
2023/07/12 09:48:59;;;;;;;5.05;1.15;;;21.80;99.90;;;;;;5119239;22;20418;-66
2023/07/12 09:51:47;;;;;;;3.60;1.15;;;21.60;99.90;;;;;;5086964;28;20422;-66
2023/07/12 09:54:34;;;;;;;5.15;1.40;;;21.30;99.90;;;;;;5085097;28;20021;-66
2023/07/12 09:57:15;;;;;;;3.22;1.55;;;21.10;99.90;;;;;;5083404;28;20047;-66
2023/07/12 09:59:51;;;;;;;3.47;1.52;;;21.00;99.90;;;;;;5085632;28;20042;-67
2023/07/12 10:02:34;;;;;;;4.30;1.98;;;21.10;99.90;;;;;;5076706;28;20077;-66
2023/07/12 10:05:11;;;;;;;1.25;0.98;;;21.30;99.90;;;;;;5091518;28;20308;-65
2023/07/12 10:08:05;;;;;;;4.50;1.45;;;21.70;99.90;;;;;;5090875;28;20432;-66
2023/07/12 10:10:48;;;;;;;2.47;1.30;;;21.90;99.90;;;;;;5077763;28;20028;-66
2023/07/12 10:13:21;;;;;;;2.70;1.20;;;21.70;99.90;;;;;;5074008;28;20026;-66
2023/07/12 10:15:48;;;;;;;5.15;1.05;;;21.90;99.90;;;;;;5080261;28;20035;-89
2023/07/12 10:18:26;;;;;;;1.50;0.98;;;22.20;99.90;;;;;;5075476;28;20020;-66
2023/07/12 10:20:53;;;;;;;7.95;1.58;;;22.40;99.90;;;;;;5085153;28;20393;-73
2023/07/12 10:23:23;;;;;;;5.10;1.10;;;22.40;99.90;;;;;;5075120;28;20024;-72
2023/07/12 10:26:03;;;;;;;3.50;1.48;;;22.30;99.90;;;;;;5085730;28;20034;-66
2023/07/12 10:28:41;;;;;;;1.80;1.13;;;22.60;99.90;;;;;;5088942;28;20063;-66
2023/07/12 10:31:25;;;;;;;2.65;1.10;;;22.70;99.90;;;;;;5088781;28;20291;-81
2023/07/12 10:33:59;;;;;;;2.50;1.08;;;22.70;99.90;;;;;;5080885;28;20024;-67
2023/07/12 10:36:26;;;;;;;2.78;1.02;;;22.60;99.90;;;;;;5076261;28;20017;-66
2023/07/12 10:38:52;;;;;;;;;;;22.50;99.90;;;;;;5088269;28;20024;-66
2023/07/12 10:41:44;;;;;;;4.13;1.15;;;22.70;99.90;;;;;;5082152;28;19904;-67
2023/07/12 10:44:23;;;;;;;1.73;0.93;;;22.80;99.90;;;;;;5082713;28;20033;-67
2023/07/12 10:46:56;;;;;;;4.35;1.27;;;22.70;99.90;;;;;;5082542;28;20462;-67
2023/07/12 10:49:52;;;;;;;6.03;1.05;;;22.70;99.90;;;;;;5087232;28;20055;-67
2023/07/12 10:52:54;;;;;;;3.20;1.10;;;22.60;99.90;;;;;;5083572;28;20047;-83
2023/07/12 10:56:03;;;;;;;4.55;1.15;;;22.80;99.90;;;;;;5085084;28;20404;-67
2023/07/12 10:58:49;;;;;;;8.98;1.42;;;23.00;99.90;;;;;;5088976;28;20020;-66
2023/07/12 11:01:41;;;;;;;2.90;1.30;;;23.10;99.90;;;;;;5077854;28;20027;-67
2023/07/12 11:04:15;;;;;;;2.30;0.80;;;23.10;99.90;;;;;;5085844;28;20036;-79
2023/07/12 11:06:59;;;;;;;0.50;0.50;;;23.10;99.90;;;;;;5093377;28;20032;-66
2023/07/12 11:09:48;;;;;;;3.50;1.13;;;23.10;99.90;;;;;;5068960;28;20112;-68
2023/07/12 11:12:31;;;;;;;1.55;0.80;;;23.10;99.90;;;;;;5087328;28;20040;-66
2023/07/12 11:15:06;;;;;;;2.75;0.80;;;23.10;99.90;;;;;;5093437;28;20461;-66
2023/07/12 11:18:09;;;;;;;1.05;0.85;;;23.30;99.90;;;;;;5094736;28;20028;-66
2023/07/12 11:20:56;;;;;;;4.93;0.90;;;23.40;99.90;;;;;;5084961;28;20431;-66
2023/07/12 11:23:35;;;;;;;1.33;0.80;;;23.50;99.90;;;;;;5087310;28;20020;-67
2023/07/12 11:26:27;;;;;;;2.63;1.08;;;23.50;99.90;;;;;;5082133;28;20099;-66
2023/07/12 11:28:54;;;;;;;2.60;0.50;;;23.20;99.90;;;;;;5084263;28;20051;-73
2023/07/12 11:31:26;;;;;;;;;;;23.10;99.90;;;;;;5087146;28;20387;-66
2023/07/12 11:34:14;;;;;;;4.60;0.93;;;22.90;99.90;;;;;;5096307;28;19915;-75
2023/07/12 11:36:41;;;;;;;1.95;1.33;;;23.20;99.90;;;;;;5092754;28;20036;-66
2023/07/12 11:39:16;;;;;;;7.10;0.93;;;23.40;99.90;;;;;;5098324;28;20024;-83
2023/07/12 11:41:52;;;;;;;2.95;0.85;;;23.50;99.90;;;;;;5089236;28;20105;-66
2023/07/12 11:44:18;;;;;;;3.70;1.30;;;23.70;99.90;;;;;;5094220;28;20044;-67
2023/07/12 11:46:47;;;;;;;3.38;1.17;;;23.60;99.90;;;;;;5097513;28;20020;-67
2023/07/12 11:49:25;;;;;;;3.75;1.30;;;23.50;99.90;;;;;;5093332;28;20028;-66
2023/07/12 11:51:57;;;;;;;1.30;0.70;;;23.10;99.90;;;;;;5079013;28;20299;-67
2023/07/12 11:54:27;;;;;;;1.23;0.93;;;23.10;99.90;;;;;;5095048;28;20031;-67
2023/07/12 11:57:01;;;;;;;2.28;0.95;;;23.20;99.90;;;;;;5086039;28;20016;-65
2023/07/12 11:59:31;;;;;;;1.10;0.60;;;23.20;99.90;;;;;;5090959;28;20078;-67
2023/07/12 12:02:05;;;;;;;2.47;0.90;;;23.40;99.90;;;;;;5081886;28;20028;-67
2023/07/12 12:04:31;;;;;;;2.83;1.15;;;23.10;99.90;;;;;;5068910;28;20047;-67
2023/07/12 12:07:02;;;;;;;4.05;1.20;;;23.10;99.90;;;;;;5087679;28;20052;-67
2023/07/12 12:09:34;;;;;;;2.78;1.10;;;23.20;99.90;;;;;;5083924;28;20039;-66
2023/07/12 12:12:02;;;;;;;2.80;1.70;;;23.50;99.90;;;;;;5096375;28;20059;-66
2023/07/12 12:14:31;;;;;;;3.90;0.90;;;23.80;99.90;;;;;;5097585;28;20031;-68
2023/07/12 12:17:03;;;;;;;5.78;1.17;;;24.00;99.90;;;;;;5092151;28;20028;-65
2023/07/12 12:19:30;;;;;;;8.88;1.30;;;24.00;99.90;;;;;;5097412;28;20032;-67
2023/07/12 12:22:23;;;;;;;1.98;0.70;;;23.90;99.90;;;;;;5095078;28;20330;-65
2023/07/12 12:24:53;;;;;;;2.55;0.70;;;23.80;99.90;;;;;;5096687;28;20028;-66
2023/07/12 12:27:28;;;;;;;1.88;0.90;;;23.80;99.90;;;;;;5095339;28;20036;-65
2023/07/12 12:29:54;;;;;;;4.18;1.20;;;23.90;99.90;;;;;;5093082;28;20028;-67
2023/07/12 12:32:21;;;;;;;4.70;0.93;;;24.00;99.90;;;;;;5091513;28;20024;-66
2023/07/12 12:34:54;;;;;;;2.78;0.93;;;24.10;99.90;;;;;;5077874;28;20085;-67
2023/07/12 12:37:28;;;;;;;2.47;0.82;;;24.00;99.90;;;;;;5096625;28;20024;-67
2023/07/12 12:40:10;;;;;;;2.72;0.93;;;23.80;99.90;;;;;;5093857;28;20028;-78
2023/07/12 12:42:52;;;;;;;3.03;0.70;;;23.60;99.90;;;;;;5094346;28;20446;-66
2023/07/12 12:45:18;;;;;;;3.28;0.68;;;23.50;99.90;;;;;;5088536;28;20348;-66
2023/07/12 12:47:45;;;;;;;2.85;0.77;;;23.50;99.90;;;;;;5094016;28;20040;-79
2023/07/12 12:50:18;;;;;;;0.70;0.50;;;23.60;99.90;;;;;;5095921;28;20072;-66
2023/07/12 12:52:44;;;;;;;0.77;0.60;;;23.50;99.90;;;;;;5094535;28;20556;-65
2023/07/12 12:55:11;;;;;;;2.97;0.65;;;23.50;99.90;;;;;;5084467;28;20059;-67
2023/07/12 12:57:39;;;;;;;3.70;0.60;;;23.50;99.90;;;;;;5085939;28;20024;-66
2023/07/12 13:00:17;;;;;;;2.80;0.75;;;23.50;99.90;;;;;;5094077;28;20077;-66